sensor_id;sensor_type;location;lat;lon;timestamp;P1;durP1;ratioP1;P2;durP2;ratioP2
30147;SDS011;16960;49.404;8.248;2023-07-30T00:02:15;2.30;;;1.50;;
30147;SDS011;16960;49.404;8.248;2023-07-30T00:04:42;1.60;;;1.50;;
30147;SDS011;16960;49.404;8.248;2023-07-30T00:07:10;2.57;;;2.17;;
30147;SDS011;16960;49.404;8.248;2023-07-30T00:09:37;2.47;;;2.27;;
30147;SDS011;16960;49.404;8.248;2023-07-30T00:12:06;1.50;;;1.37;;
30147;SDS011;16960;49.404;8.248;2023-07-30T00:14:34;1.60;;;1.50;;
30147;SDS011;16960;49.404;8.248;2023-07-30T00:17:01;2.30;;;1.80;;
30147;SDS011;16960;49.404;8.248;2023-07-30T00:19:29;4.83;;;2.20;;
30147;SDS011;16960;49.404;8.248;2023-07-30T00:21:56;4.17;;;2.43;;
30147;SDS011;16960;49.404;8.248;2023-07-30T00:24:22;5.60;;;2.30;;
30147;SDS011;16960;49.404;8.248;2023-07-30T00:26:49;3.73;;;2.27;;
30147;SDS011;16960;49.404;8.248;2023-07-30T00:29:18;4.20;;;2.33;;
30147;SDS011;16960;49.404;8.248;2023-07-30T00:31:44;5.50;;;2.60;;
30147;SDS011;16960;49.404;8.248;2023-07-30T00:34:11;4.80;;;2.73;;
30147;SDS011;16960;49.404;8.248;2023-07-30T00:36:38;4.27;;;2.50;;
30147;SDS011;16960;49.404;8.248;2023-07-30T00:39:05;3.90;;;2.50;;
30147;SDS011;16960;49.404;8.248;2023-07-30T00:41:32;4.27;;;2.43;;
30147;SDS011;16960;49.404;8.248;2023-07-30T00:43:59;5.63;;;2.47;;
30147;SDS011;16960;49.404;8.248;2023-07-30T00:46:27;3.90;;;2.27;;
30147;SDS011;16960;49.404;8.248;2023-07-30T00:48:54;2.63;;;1.97;;
30147;SDS011;16960;49.404;8.248;2023-07-30T00:51:21;4.30;;;2.70;;
30147;SDS011;16960;49.404;8.248;2023-07-30T00:53:49;5.07;;;2.60;;
30147;SDS011;16960;49.404;8.248;2023-07-30T00:56:16;4.63;;;2.90;;
30147;SDS011;16960;49.404;8.248;2023-07-30T00:58:43;4.33;;;2.53;;
30147;SDS011;16960;49.404;8.248;2023-07-30T01:01:13;4.70;;;2.23;;
30147;SDS011;16960;49.404;8.248;2023-07-30T01:03:41;4.20;;;1.97;;
30147;SDS011;16960;49.404;8.248;2023-07-30T01:06:08;3.43;;;2.30;;
30147;SDS011;16960;49.404;8.248;2023-07-30T01:08:35;2.87;;;1.90;;
30147;SDS011;16960;49.404;8.248;2023-07-30T01:11:03;2.10;;;1.87;;
30147;SDS011;16960;49.404;8.248;2023-07-30T01:13:32;3.20;;;2.10;;
30147;SDS011;16960;49.404;8.248;2023-07-30T01:16:00;5.83;;;2.23;;
30147;SDS011;16960;49.404;8.248;2023-07-30T01:18:28;2.57;;;1.87;;
30147;SDS011;16960;49.404;8.248;2023-07-30T01:20:58;3.43;;;1.80;;
30147;SDS011;16960;49.404;8.248;2023-07-30T01:23:25;2.20;;;1.67;;
30147;SDS011;16960;49.404;8.248;2023-07-30T01:25:59;3.27;;;1.73;;
30147;SDS011;16960;49.404;8.248;2023-07-30T01:28:31;5.33;;;2.03;;
30147;SDS011;16960;49.404;8.248;2023-07-30T01:31:02;2.40;;;1.70;;
30147;SDS011;16960;49.404;8.248;2023-07-30T01:33:31;3.40;;;1.70;;
30147;SDS011;16960;49.404;8.248;2023-07-30T01:36:00;4.10;;;2.10;;
30147;SDS011;16960;49.404;8.248;2023-07-30T01:38:28;2.00;;;1.40;;
30147;SDS011;16960;49.404;8.248;2023-07-30T01:40:56;4.07;;;2.27;;
30147;SDS011;16960;49.404;8.248;2023-07-30T01:43:23;3.10;;;1.60;;
30147;SDS011;16960;49.404;8.248;2023-07-30T01:45:50;2.70;;;1.50;;
30147;SDS011;16960;49.404;8.248;2023-07-30T01:48:17;2.30;;;1.70;;
30147;SDS011;16960;49.404;8.248;2023-07-30T01:50:44;2.73;;;1.70;;
30147;SDS011;16960;49.404;8.248;2023-07-30T01:53:13;3.10;;;2.00;;
30147;SDS011;16960;49.404;8.248;2023-07-30T01:55:40;2.27;;;2.07;;
30147;SDS011;16960;49.404;8.248;2023-07-30T01:58:11;2.60;;;1.80;;
30147;SDS011;16960;49.404;8.248;2023-07-30T02:00:38;2.83;;;1.80;;
30147;SDS011;16960;49.404;8.248;2023-07-30T02:03:05;2.50;;;2.10;;
30147;SDS011;16960;49.404;8.248;2023-07-30T02:05:32;2.87;;;1.73;;
30147;SDS011;16960;49.404;8.248;2023-07-30T02:07:59;2.57;;;1.60;;
30147;SDS011;16960;49.404;8.248;2023-07-30T02:10:27;2.43;;;1.50;;
30147;SDS011;16960;49.404;8.248;2023-07-30T02:12:54;2.90;;;1.67;;
30147;SDS011;16960;49.404;8.248;2023-07-30T02:15:21;1.77;;;1.60;;
30147;SDS011;16960;49.404;8.248;2023-07-30T02:17:48;3.50;;;1.83;;
30147;SDS011;16960;49.404;8.248;2023-07-30T02:20:15;1.73;;;1.50;;
30147;SDS011;16960;49.404;8.248;2023-07-30T02:22:42;2.50;;;1.73;;
30147;SDS011;16960;49.404;8.248;2023-07-30T02:25:09;1.87;;;1.57;;
30147;SDS011;16960;49.404;8.248;2023-07-30T02:27:37;1.57;;;1.30;;
30147;SDS011;16960;49.404;8.248;2023-07-30T02:30:05;1.70;;;1.60;;
30147;SDS011;16960;49.404;8.248;2023-07-30T02:32:32;2.10;;;1.83;;
30147;SDS011;16960;49.404;8.248;2023-07-30T02:34:59;3.57;;;1.83;;
30147;SDS011;16960;49.404;8.248;2023-07-30T02:37:26;4.60;;;2.10;;
30147;SDS011;16960;49.404;8.248;2023-07-30T02:39:53;2.00;;;1.50;;
30147;SDS011;16960;49.404;8.248;2023-07-30T02:42:20;2.40;;;1.90;;
30147;SDS011;16960;49.404;8.248;2023-07-30T02:44:48;2.87;;;1.57;;
30147;SDS011;16960;49.404;8.248;2023-07-30T02:47:15;2.37;;;1.70;;
30147;SDS011;16960;49.404;8.248;2023-07-30T02:49:42;1.70;;;1.53;;
30147;SDS011;16960;49.404;8.248;2023-07-30T02:52:09;2.00;;;1.50;;
30147;SDS011;16960;49.404;8.248;2023-07-30T02:54:36;1.77;;;1.50;;
30147;SDS011;16960;49.404;8.248;2023-07-30T02:57:03;1.70;;;1.60;;
30147;SDS011;16960;49.404;8.248;2023-07-30T02:59:30;2.37;;;1.83;;
30147;SDS011;16960;49.404;8.248;2023-07-30T03:02:02;1.50;;;1.37;;
30147;SDS011;16960;49.404;8.248;2023-07-30T03:04:30;2.40;;;1.37;;
30147;SDS011;16960;49.404;8.248;2023-07-30T03:06:56;2.53;;;1.50;;
30147;SDS011;16960;49.404;8.248;2023-07-30T03:09:23;1.60;;;1.50;;
30147;SDS011;16960;49.404;8.248;2023-07-30T03:11:50;2.17;;;1.47;;
30147;SDS011;16960;49.404;8.248;2023-07-30T03:14:18;2.30;;;1.80;;
30147;SDS011;16960;49.404;8.248;2023-07-30T03:16:46;2.43;;;1.50;;
30147;SDS011;16960;49.404;8.248;2023-07-30T03:19:14;1.80;;;1.33;;
30147;SDS011;16960;49.404;8.248;2023-07-30T03:21:41;3.30;;;2.00;;
30147;SDS011;16960;49.404;8.248;2023-07-30T03:24:08;2.10;;;1.40;;
30147;SDS011;16960;49.404;8.248;2023-07-30T03:26:35;2.23;;;1.30;;
30147;SDS011;16960;49.404;8.248;2023-07-30T03:29:02;1.30;;;1.20;;
30147;SDS011;16960;49.404;8.248;2023-07-30T03:31:29;2.57;;;1.83;;
30147;SDS011;16960;49.404;8.248;2023-07-30T03:33:58;1.50;;;1.30;;
30147;SDS011;16960;49.404;8.248;2023-07-30T03:36:26;1.90;;;1.60;;
30147;SDS011;16960;49.404;8.248;2023-07-30T03:38:59;1.87;;;1.20;;
30147;SDS011;16960;49.404;8.248;2023-07-30T03:41:26;2.17;;;1.90;;
30147;SDS011;16960;49.404;8.248;2023-07-30T03:43:53;1.40;;;1.30;;
30147;SDS011;16960;49.404;8.248;2023-07-30T03:46:20;1.60;;;1.30;;
30147;SDS011;16960;49.404;8.248;2023-07-30T03:48:47;1.40;;;1.30;;
30147;SDS011;16960;49.404;8.248;2023-07-30T03:51:14;2.10;;;1.33;;
30147;SDS011;16960;49.404;8.248;2023-07-30T03:53:42;2.90;;;1.40;;
30147;SDS011;16960;49.404;8.248;2023-07-30T03:56:09;1.07;;;0.93;;
30147;SDS011;16960;49.404;8.248;2023-07-30T03:58:36;2.30;;;1.43;;
30147;SDS011;16960;49.404;8.248;2023-07-30T04:01:03;1.47;;;1.10;;
30147;SDS011;16960;49.404;8.248;2023-07-30T04:03:29;1.63;;;1.50;;
30147;SDS011;16960;49.404;8.248;2023-07-30T04:05:56;1.90;;;1.20;;
30147;SDS011;16960;49.404;8.248;2023-07-30T04:08:23;1.40;;;1.30;;
30147;SDS011;16960;49.404;8.248;2023-07-30T04:10:51;1.60;;;1.37;;
30147;SDS011;16960;49.404;8.248;2023-07-30T04:13:18;1.40;;;1.27;;
30147;SDS011;16960;49.404;8.248;2023-07-30T04:15:47;1.37;;;1.20;;
30147;SDS011;16960;49.404;8.248;2023-07-30T04:18:14;1.57;;;1.20;;
30147;SDS011;16960;49.404;8.248;2023-07-30T04:20:41;1.30;;;1.20;;
30147;SDS011;16960;49.404;8.248;2023-07-30T04:23:08;1.13;;;1.03;;
30147;SDS011;16960;49.404;8.248;2023-07-30T04:25:35;1.27;;;1.13;;
30147;SDS011;16960;49.404;8.248;2023-07-30T04:28:03;1.70;;;1.37;;
30147;SDS011;16960;49.404;8.248;2023-07-30T04:30:30;1.37;;;1.10;;
30147;SDS011;16960;49.404;8.248;2023-07-30T04:32:57;1.47;;;1.10;;
30147;SDS011;16960;49.404;8.248;2023-07-30T04:35:24;1.50;;;1.40;;
30147;SDS011;16960;49.404;8.248;2023-07-30T04:37:51;1.53;;;1.40;;
30147;SDS011;16960;49.404;8.248;2023-07-30T04:40:18;1.30;;;1.20;;
30147;SDS011;16960;49.404;8.248;2023-07-30T04:42:44;1.83;;;1.53;;
30147;SDS011;16960;49.404;8.248;2023-07-30T04:45:13;1.63;;;1.30;;
30147;SDS011;16960;49.404;8.248;2023-07-30T04:47:40;1.87;;;1.67;;
30147;SDS011;16960;49.404;8.248;2023-07-30T04:50:07;1.43;;;1.13;;
30147;SDS011;16960;49.404;8.248;2023-07-30T04:52:34;1.33;;;1.20;;
30147;SDS011;16960;49.404;8.248;2023-07-30T04:55:01;1.30;;;1.20;;
30147;SDS011;16960;49.404;8.248;2023-07-30T04:57:28;2.33;;;1.47;;
30147;SDS011;16960;49.404;8.248;2023-07-30T04:59:55;1.17;;;1.00;;
30147;SDS011;16960;49.404;8.248;2023-07-30T05:02:23;1.50;;;1.40;;
30147;SDS011;16960;49.404;8.248;2023-07-30T05:04:50;1.23;;;1.07;;
30147;SDS011;16960;49.404;8.248;2023-07-30T05:07:17;1.17;;;1.07;;
30147;SDS011;16960;49.404;8.248;2023-07-30T05:09:44;1.90;;;1.70;;
30147;SDS011;16960;49.404;8.248;2023-07-30T05:12:11;2.83;;;1.17;;
30147;SDS011;16960;49.404;8.248;2023-07-30T05:14:38;1.33;;;1.23;;
30147;SDS011;16960;49.404;8.248;2023-07-30T05:17:05;1.40;;;1.20;;
30147;SDS011;16960;49.404;8.248;2023-07-30T05:19:33;1.10;;;0.93;;
30147;SDS011;16960;49.404;8.248;2023-07-30T05:22:00;3.03;;;1.53;;
30147;SDS011;16960;49.404;8.248;2023-07-30T05:24:27;1.47;;;1.20;;
30147;SDS011;16960;49.404;8.248;2023-07-30T05:26:54;1.83;;;1.20;;
30147;SDS011;16960;49.404;8.248;2023-07-30T05:29:21;1.03;;;0.90;;
30147;SDS011;16960;49.404;8.248;2023-07-30T05:31:48;1.50;;;1.30;;
30147;SDS011;16960;49.404;8.248;2023-07-30T05:34:14;1.80;;;1.00;;
30147;SDS011;16960;49.404;8.248;2023-07-30T05:36:43;1.87;;;1.53;;
30147;SDS011;16960;49.404;8.248;2023-07-30T05:39:10;1.20;;;1.10;;
30147;SDS011;16960;49.404;8.248;2023-07-30T05:41:36;1.57;;;1.37;;
30147;SDS011;16960;49.404;8.248;2023-07-30T05:44:03;1.27;;;1.17;;
30147;SDS011;16960;49.404;8.248;2023-07-30T05:46:30;1.53;;;1.27;;
30147;SDS011;16960;49.404;8.248;2023-07-30T05:48:57;2.03;;;1.33;;
30147;SDS011;16960;49.404;8.248;2023-07-30T05:51:24;1.70;;;1.30;;
30147;SDS011;16960;49.404;8.248;2023-07-30T05:53:52;2.03;;;1.47;;
30147;SDS011;16960;49.404;8.248;2023-07-30T05:56:19;0.90;;;0.80;;
30147;SDS011;16960;49.404;8.248;2023-07-30T05:58:46;2.30;;;0.83;;
30147;SDS011;16960;49.404;8.248;2023-07-30T06:01:13;1.50;;;1.30;;
30147;SDS011;16960;49.404;8.248;2023-07-30T06:03:40;1.20;;;1.10;;
30147;SDS011;16960;49.404;8.248;2023-07-30T06:06:07;1.30;;;1.20;;
30147;SDS011;16960;49.404;8.248;2023-07-30T06:08:33;1.27;;;1.07;;
30147;SDS011;16960;49.404;8.248;2023-07-30T06:11:02;1.60;;;1.23;;
30147;SDS011;16960;49.404;8.248;2023-07-30T06:13:29;1.33;;;1.17;;
30147;SDS011;16960;49.404;8.248;2023-07-30T06:15:56;1.70;;;1.47;;
30147;SDS011;16960;49.404;8.248;2023-07-30T06:18:23;1.20;;;1.10;;
30147;SDS011;16960;49.404;8.248;2023-07-30T06:20:50;1.30;;;1.20;;
30147;SDS011;16960;49.404;8.248;2023-07-30T06:23:17;1.33;;;1.07;;
30147;SDS011;16960;49.404;8.248;2023-07-30T06:25:44;1.20;;;1.10;;
30147;SDS011;16960;49.404;8.248;2023-07-30T06:28:12;2.00;;;1.60;;
30147;SDS011;16960;49.404;8.248;2023-07-30T06:30:39;1.63;;;1.30;;
30147;SDS011;16960;49.404;8.248;2023-07-30T06:33:06;2.87;;;0.80;;
30147;SDS011;16960;49.404;8.248;2023-07-30T06:35:33;1.33;;;1.23;;
30147;SDS011;16960;49.404;8.248;2023-07-30T06:38:00;1.67;;;1.33;;
30147;SDS011;16960;49.404;8.248;2023-07-30T06:40:26;1.60;;;1.33;;
30147;SDS011;16960;49.404;8.248;2023-07-30T06:42:53;1.37;;;1.27;;
30147;SDS011;16960;49.404;8.248;2023-07-30T06:45:22;1.60;;;1.33;;
30147;SDS011;16960;49.404;8.248;2023-07-30T06:47:49;2.03;;;1.50;;
30147;SDS011;16960;49.404;8.248;2023-07-30T06:50:15;4.73;;;1.57;;
30147;SDS011;16960;49.404;8.248;2023-07-30T06:52:42;1.67;;;1.30;;
30147;SDS011;16960;49.404;8.248;2023-07-30T06:55:09;1.80;;;1.63;;
30147;SDS011;16960;49.404;8.248;2023-07-30T06:57:36;1.50;;;1.37;;
30147;SDS011;16960;49.404;8.248;2023-07-30T07:00:03;2.10;;;1.83;;
30147;SDS011;16960;49.404;8.248;2023-07-30T07:02:32;2.80;;;1.90;;
30147;SDS011;16960;49.404;8.248;2023-07-30T07:04:59;3.27;;;1.67;;
30147;SDS011;16960;49.404;8.248;2023-07-30T07:07:26;1.63;;;1.53;;
30147;SDS011;16960;49.404;8.248;2023-07-30T07:09:53;3.07;;;2.47;;
30147;SDS011;16960;49.404;8.248;2023-07-30T07:12:20;4.53;;;2.17;;
30147;SDS011;16960;49.404;8.248;2023-07-30T07:14:47;2.30;;;2.00;;
30147;SDS011;16960;49.404;8.248;2023-07-30T07:17:13;2.90;;;2.70;;
30147;SDS011;16960;49.404;8.248;2023-07-30T07:19:42;4.73;;;2.80;;
30147;SDS011;16960;49.404;8.248;2023-07-30T07:22:09;2.77;;;2.57;;
30147;SDS011;16960;49.404;8.248;2023-07-30T07:24:36;2.87;;;2.67;;
30147;SDS011;16960;49.404;8.248;2023-07-30T07:27:03;3.20;;;2.90;;
30147;SDS011;16960;49.404;8.248;2023-07-30T07:29:30;2.80;;;2.23;;
30147;SDS011;16960;49.404;8.248;2023-07-30T07:31:57;3.07;;;2.60;;
30147;SDS011;16960;49.404;8.248;2023-07-30T07:34:24;3.77;;;2.77;;
30147;SDS011;16960;49.404;8.248;2023-07-30T07:36:52;2.63;;;2.20;;
30147;SDS011;16960;49.404;8.248;2023-07-30T07:39:19;3.27;;;2.37;;
30147;SDS011;16960;49.404;8.248;2023-07-30T07:41:46;2.47;;;2.27;;
30147;SDS011;16960;49.404;8.248;2023-07-30T07:44:13;3.50;;;2.50;;
30147;SDS011;16960;49.404;8.248;2023-07-30T07:46:40;2.53;;;2.33;;
30147;SDS011;16960;49.404;8.248;2023-07-30T07:49:07;2.80;;;2.50;;
30147;SDS011;16960;49.404;8.248;2023-07-30T07:51:34;4.40;;;2.57;;
30147;SDS011;16960;49.404;8.248;2023-07-30T07:54:02;2.80;;;2.10;;
30147;SDS011;16960;49.404;8.248;2023-07-30T07:56:30;5.33;;;2.53;;
30147;SDS011;16960;49.404;8.248;2023-07-30T07:58:57;2.57;;;2.33;;
30147;SDS011;16960;49.404;8.248;2023-07-30T08:01:24;3.30;;;2.20;;
30147;SDS011;16960;49.404;8.248;2023-07-30T08:03:51;2.17;;;2.07;;
30147;SDS011;16960;49.404;8.248;2023-07-30T08:06:18;1.70;;;1.60;;
30147;SDS011;16960;49.404;8.248;2023-07-30T08:08:45;2.70;;;1.97;;
30147;SDS011;16960;49.404;8.248;2023-07-30T08:11:13;4.00;;;1.90;;
30147;SDS011;16960;49.404;8.248;2023-07-30T08:13:40;3.00;;;2.47;;
30147;SDS011;16960;49.404;8.248;2023-07-30T08:16:07;2.57;;;2.20;;
30147;SDS011;16960;49.404;8.248;2023-07-30T08:18:34;4.53;;;2.00;;
30147;SDS011;16960;49.404;8.248;2023-07-30T08:21:01;2.23;;;2.03;;
30147;SDS011;16960;49.404;8.248;2023-07-30T08:23:28;3.97;;;2.20;;
30147;SDS011;16960;49.404;8.248;2023-07-30T08:25:54;3.30;;;2.00;;
30147;SDS011;16960;49.404;8.248;2023-07-30T08:28:23;3.53;;;1.90;;
30147;SDS011;16960;49.404;8.248;2023-07-30T08:30:50;1.97;;;1.77;;
30147;SDS011;16960;49.404;8.248;2023-07-30T08:33:17;2.17;;;1.97;;
30147;SDS011;16960;49.404;8.248;2023-07-30T08:35:44;5.00;;;2.30;;
30147;SDS011;16960;49.404;8.248;2023-07-30T08:38:10;3.50;;;2.20;;
30147;SDS011;16960;49.404;8.248;2023-07-30T08:40:37;2.20;;;1.80;;
30147;SDS011;16960;49.404;8.248;2023-07-30T08:43:04;2.10;;;1.90;;
30147;SDS011;16960;49.404;8.248;2023-07-30T08:45:33;2.47;;;2.23;;
30147;SDS011;16960;49.404;8.248;2023-07-30T08:48:00;2.60;;;1.80;;
30147;SDS011;16960;49.404;8.248;2023-07-30T08:50:27;2.87;;;1.93;;
30147;SDS011;16960;49.404;8.248;2023-07-30T08:52:54;3.00;;;2.33;;
30147;SDS011;16960;49.404;8.248;2023-07-30T08:55:22;3.90;;;2.50;;
30147;SDS011;16960;49.404;8.248;2023-07-30T08:57:50;3.83;;;2.00;;
30147;SDS011;16960;49.404;8.248;2023-07-30T09:00:19;3.40;;;2.40;;
30147;SDS011;16960;49.404;8.248;2023-07-30T09:02:51;2.63;;;2.10;;
30147;SDS011;16960;49.404;8.248;2023-07-30T09:05:19;3.73;;;2.13;;
30147;SDS011;16960;49.404;8.248;2023-07-30T09:07:47;2.00;;;1.90;;
30147;SDS011;16960;49.404;8.248;2023-07-30T09:10:14;3.30;;;2.17;;
30147;SDS011;16960;49.404;8.248;2023-07-30T09:12:41;2.40;;;2.20;;
30147;SDS011;16960;49.404;8.248;2023-07-30T09:15:09;1.80;;;1.50;;
30147;SDS011;16960;49.404;8.248;2023-07-30T09:17:36;2.83;;;2.13;;
30147;SDS011;16960;49.404;8.248;2023-07-30T09:20:05;3.70;;;2.50;;
30147;SDS011;16960;49.404;8.248;2023-07-30T09:22:33;5.13;;;2.00;;
30147;SDS011;16960;49.404;8.248;2023-07-30T09:25:04;2.90;;;2.43;;
30147;SDS011;16960;49.404;8.248;2023-07-30T09:27:32;3.07;;;2.60;;
30147;SDS011;16960;49.404;8.248;2023-07-30T09:30:00;1.90;;;1.80;;
30147;SDS011;16960;49.404;8.248;2023-07-30T09:32:30;4.63;;;2.40;;
30147;SDS011;16960;49.404;8.248;2023-07-30T09:35:05;2.47;;;2.23;;
30147;SDS011;16960;49.404;8.248;2023-07-30T09:37:33;2.30;;;1.90;;
30147;SDS011;16960;49.404;8.248;2023-07-30T09:40:03;8.40;;;2.30;;
30147;SDS011;16960;49.404;8.248;2023-07-30T09:42:31;2.80;;;1.80;;
30147;SDS011;16960;49.404;8.248;2023-07-30T09:45:00;2.20;;;2.00;;
30147;SDS011;16960;49.404;8.248;2023-07-30T09:47:27;2.33;;;2.00;;
30147;SDS011;16960;49.404;8.248;2023-07-30T09:49:56;2.63;;;1.90;;
30147;SDS011;16960;49.404;8.248;2023-07-30T09:52:25;1.90;;;1.80;;
30147;SDS011;16960;49.404;8.248;2023-07-30T09:54:52;3.00;;;1.50;;
30147;SDS011;16960;49.404;8.248;2023-07-30T09:57:19;1.90;;;1.30;;
30147;SDS011;16960;49.404;8.248;2023-07-30T09:59:46;2.07;;;1.73;;
30147;SDS011;16960;49.404;8.248;2023-07-30T10:02:13;5.83;;;2.00;;
30147;SDS011;16960;49.404;8.248;2023-07-30T10:04:43;2.13;;;1.40;;
30147;SDS011;16960;49.404;8.248;2023-07-30T10:07:14;2.30;;;1.80;;
30147;SDS011;16960;49.404;8.248;2023-07-30T10:09:45;2.70;;;1.80;;
30147;SDS011;16960;49.404;8.248;2023-07-30T10:12:16;2.20;;;1.90;;
30147;SDS011;16960;49.404;8.248;2023-07-30T10:14:44;3.53;;;1.90;;
30147;SDS011;16960;49.404;8.248;2023-07-30T10:17:11;2.33;;;1.70;;
30147;SDS011;16960;49.404;8.248;2023-07-30T10:19:38;1.77;;;1.67;;
30147;SDS011;16960;49.404;8.248;2023-07-30T10:22:19;1.93;;;1.83;;
30147;SDS011;16960;49.404;8.248;2023-07-30T10:24:56;2.50;;;1.47;;
30147;SDS011;16960;49.404;8.248;2023-07-30T10:27:25;1.73;;;1.60;;
30147;SDS011;16960;49.404;8.248;2023-07-30T10:30:09;1.73;;;1.63;;
30147;SDS011;16960;49.404;8.248;2023-07-30T10:32:38;1.87;;;1.50;;
30147;SDS011;16960;49.404;8.248;2023-07-30T10:35:06;1.87;;;1.70;;
30147;SDS011;16960;49.404;8.248;2023-07-30T10:37:33;2.67;;;1.73;;
30147;SDS011;16960;49.404;8.248;2023-07-30T10:40:01;1.67;;;1.57;;
30147;SDS011;16960;49.404;8.248;2023-07-30T10:42:43;1.87;;;1.67;;
30147;SDS011;16960;49.404;8.248;2023-07-30T10:45:10;1.70;;;1.40;;
30147;SDS011;16960;49.404;8.248;2023-07-30T10:47:37;1.77;;;1.67;;
30147;SDS011;16960;49.404;8.248;2023-07-30T10:50:07;1.73;;;1.43;;
30147;SDS011;16960;49.404;8.248;2023-07-30T10:52:36;1.20;;;1.10;;
30147;SDS011;16960;49.404;8.248;2023-07-30T10:55:05;2.07;;;1.30;;
30147;SDS011;16960;49.404;8.248;2023-07-30T10:57:33;1.70;;;1.60;;
30147;SDS011;16960;49.404;8.248;2023-07-30T11:00:00;1.47;;;1.37;;
30147;SDS011;16960;49.404;8.248;2023-07-30T11:02:29;1.50;;;1.20;;
30147;SDS011;16960;49.404;8.248;2023-07-30T11:04:56;1.57;;;1.20;;
30147;SDS011;16960;49.404;8.248;2023-07-30T11:07:23;1.80;;;1.60;;
30147;SDS011;16960;49.404;8.248;2023-07-30T11:09:58;3.20;;;1.80;;
30147;SDS011;16960;49.404;8.248;2023-07-30T11:12:28;1.40;;;1.30;;
30147;SDS011;16960;49.404;8.248;2023-07-30T11:15:01;1.27;;;1.17;;
30147;SDS011;16960;49.404;8.248;2023-07-30T11:17:29;1.50;;;1.40;;
30147;SDS011;16960;49.404;8.248;2023-07-30T11:19:55;1.50;;;1.40;;
30147;SDS011;16960;49.404;8.248;2023-07-30T11:22:28;1.57;;;1.47;;
30147;SDS011;16960;49.404;8.248;2023-07-30T11:24:56;1.60;;;1.50;;
30147;SDS011;16960;49.404;8.248;2023-07-30T11:27:24;1.60;;;1.17;;
30147;SDS011;16960;49.404;8.248;2023-07-30T11:29:55;1.87;;;1.50;;
30147;SDS011;16960;49.404;8.248;2023-07-30T11:32:23;1.50;;;1.10;;
30147;SDS011;16960;49.404;8.248;2023-07-30T11:34:51;1.80;;;1.33;;
30147;SDS011;16960;49.404;8.248;2023-07-30T11:37:19;3.00;;;1.77;;
30147;SDS011;16960;49.404;8.248;2023-07-30T11:39:46;2.17;;;1.50;;
30147;SDS011;16960;49.404;8.248;2023-07-30T11:42:14;1.40;;;1.20;;
30147;SDS011;16960;49.404;8.248;2023-07-30T11:44:41;2.70;;;1.10;;
30147;SDS011;16960;49.404;8.248;2023-07-30T11:47:09;1.50;;;1.40;;
30147;SDS011;16960;49.404;8.248;2023-07-30T11:49:36;1.40;;;1.30;;
30147;SDS011;16960;49.404;8.248;2023-07-30T11:52:04;2.03;;;1.43;;
30147;SDS011;16960;49.404;8.248;2023-07-30T11:54:32;2.00;;;1.30;;
30147;SDS011;16960;49.404;8.248;2023-07-30T11:56:59;2.73;;;1.73;;
30147;SDS011;16960;49.404;8.248;2023-07-30T11:59:26;2.77;;;1.40;;
30147;SDS011;16960;49.404;8.248;2023-07-30T12:01:53;2.57;;;1.60;;
30147;SDS011;16960;49.404;8.248;2023-07-30T12:04:21;2.40;;;1.37;;
30147;SDS011;16960;49.404;8.248;2023-07-30T12:06:50;2.07;;;1.10;;
30147;SDS011;16960;49.404;8.248;2023-07-30T12:09:19;1.53;;;1.13;;
30147;SDS011;16960;49.404;8.248;2023-07-30T12:11:49;1.57;;;1.30;;
30147;SDS011;16960;49.404;8.248;2023-07-30T12:14:16;1.73;;;1.03;;
30147;SDS011;16960;49.404;8.248;2023-07-30T12:16:44;2.57;;;1.60;;
30147;SDS011;16960;49.404;8.248;2023-07-30T12:19:11;1.67;;;1.10;;
30147;SDS011;16960;49.404;8.248;2023-07-30T12:21:39;1.20;;;1.03;;
30147;SDS011;16960;49.404;8.248;2023-07-30T12:24:06;3.37;;;1.60;;
30147;SDS011;16960;49.404;8.248;2023-07-30T12:26:33;1.97;;;1.33;;
30147;SDS011;16960;49.404;8.248;2023-07-30T12:29:00;1.90;;;1.17;;
30147;SDS011;16960;49.404;8.248;2023-07-30T12:31:27;1.70;;;1.30;;
30147;SDS011;16960;49.404;8.248;2023-07-30T12:33:54;1.20;;;1.03;;
30147;SDS011;16960;49.404;8.248;2023-07-30T12:36:21;1.73;;;1.17;;
30147;SDS011;16960;49.404;8.248;2023-07-30T12:38:51;1.43;;;1.03;;
30147;SDS011;16960;49.404;8.248;2023-07-30T12:41:19;2.10;;;1.40;;
30147;SDS011;16960;49.404;8.248;2023-07-30T12:43:51;3.80;;;1.10;;
30147;SDS011;16960;49.404;8.248;2023-07-30T12:46:18;2.07;;;1.30;;
30147;SDS011;16960;49.404;8.248;2023-07-30T12:48:45;1.90;;;1.20;;
30147;SDS011;16960;49.404;8.248;2023-07-30T12:51:12;1.20;;;1.10;;
30147;SDS011;16960;49.404;8.248;2023-07-30T12:53:39;1.50;;;1.40;;
30147;SDS011;16960;49.404;8.248;2023-07-30T12:56:07;3.70;;;1.20;;
30147;SDS011;16960;49.404;8.248;2023-07-30T12:58:34;1.13;;;1.03;;
30147;SDS011;16960;49.404;8.248;2023-07-30T13:01:02;1.23;;;0.93;;
30147;SDS011;16960;49.404;8.248;2023-07-30T13:03:29;1.30;;;1.13;;
30147;SDS011;16960;49.404;8.248;2023-07-30T13:05:56;1.10;;;1.00;;
30147;SDS011;16960;49.404;8.248;2023-07-30T13:08:23;2.10;;;1.40;;
30147;SDS011;16960;49.404;8.248;2023-07-30T13:10:50;2.23;;;1.07;;
30147;SDS011;16960;49.404;8.248;2023-07-30T13:13:18;5.00;;;1.30;;
30147;SDS011;16960;49.404;8.248;2023-07-30T13:15:45;2.20;;;1.00;;
30147;SDS011;16960;49.404;8.248;2023-07-30T13:18:12;4.20;;;1.20;;
30147;SDS011;16960;49.404;8.248;2023-07-30T13:20:39;2.03;;;1.40;;
30147;SDS011;16960;49.404;8.248;2023-07-30T13:23:06;1.77;;;0.93;;
30147;SDS011;16960;49.404;8.248;2023-07-30T13:25:33;1.70;;;1.00;;
30147;SDS011;16960;49.404;8.248;2023-07-30T13:28:00;1.43;;;1.17;;
30147;SDS011;16960;49.404;8.248;2023-07-30T13:30:28;1.53;;;1.00;;
30147;SDS011;16960;49.404;8.248;2023-07-30T13:32:55;1.67;;;1.03;;
30147;SDS011;16960;49.404;8.248;2023-07-30T13:35:22;1.40;;;1.10;;
30147;SDS011;16960;49.404;8.248;2023-07-30T13:37:49;1.63;;;1.13;;
30147;SDS011;16960;49.404;8.248;2023-07-30T13:40:16;2.00;;;1.20;;
30147;SDS011;16960;49.404;8.248;2023-07-30T13:42:43;1.50;;;0.97;;
30147;SDS011;16960;49.404;8.248;2023-07-30T13:45:10;2.20;;;1.10;;
30147;SDS011;16960;49.404;8.248;2023-07-30T13:47:38;2.47;;;1.17;;
30147;SDS011;16960;49.404;8.248;2023-07-30T13:50:07;1.70;;;1.20;;
30147;SDS011;16960;49.404;8.248;2023-07-30T13:52:34;2.40;;;1.57;;
30147;SDS011;16960;49.404;8.248;2023-07-30T13:55:01;1.50;;;1.30;;
30147;SDS011;16960;49.404;8.248;2023-07-30T13:57:28;1.93;;;1.00;;
30147;SDS011;16960;49.404;8.248;2023-07-30T13:59:55;1.60;;;1.40;;
30147;SDS011;16960;49.404;8.248;2023-07-30T14:02:22;1.17;;;1.00;;
30147;SDS011;16960;49.404;8.248;2023-07-30T14:04:50;2.00;;;1.20;;
30147;SDS011;16960;49.404;8.248;2023-07-30T14:07:17;2.20;;;1.50;;
30147;SDS011;16960;49.404;8.248;2023-07-30T14:09:44;2.53;;;1.10;;
30147;SDS011;16960;49.404;8.248;2023-07-30T14:12:11;1.30;;;1.10;;
30147;SDS011;16960;49.404;8.248;2023-07-30T14:14:38;4.43;;;1.20;;
30147;SDS011;16960;49.404;8.248;2023-07-30T14:17:05;2.07;;;1.07;;
30147;SDS011;16960;49.404;8.248;2023-07-30T14:19:32;1.40;;;0.90;;
30147;SDS011;16960;49.404;8.248;2023-07-30T14:22:00;2.03;;;0.90;;
30147;SDS011;16960;49.404;8.248;2023-07-30T14:24:27;0.93;;;0.87;;
30147;SDS011;16960;49.404;8.248;2023-07-30T14:26:54;5.73;;;1.47;;
30147;SDS011;16960;49.404;8.248;2023-07-30T14:29:21;1.57;;;1.10;;
30147;SDS011;16960;49.404;8.248;2023-07-30T14:31:48;1.07;;;0.97;;
30147;SDS011;16960;49.404;8.248;2023-07-30T14:34:16;1.60;;;0.90;;
30147;SDS011;16960;49.404;8.248;2023-07-30T14:36:43;1.30;;;1.03;;
30147;SDS011;16960;49.404;8.248;2023-07-30T14:39:11;3.13;;;1.40;;
30147;SDS011;16960;49.404;8.248;2023-07-30T14:41:38;2.00;;;1.10;;
30147;SDS011;16960;49.404;8.248;2023-07-30T14:44:05;1.57;;;1.00;;
30147;SDS011;16960;49.404;8.248;2023-07-30T14:46:32;1.77;;;1.37;;
30147;SDS011;16960;49.404;8.248;2023-07-30T14:48:59;1.63;;;0.90;;
30147;SDS011;16960;49.404;8.248;2023-07-30T14:51:27;1.23;;;0.90;;